Time;durP1;ratioP1;P1;durP2;ratioP2;P2;SDS_P1;SDS_P2;PMS_P1;PMS_P2;Temp;Humidity;BMP_temperature;BMP_pressure;BME280_temperature;BME280_humidity;BME280_pressure;Samples;Min_cycle;Max_cycle;Signal;HPM_P1;HPM_P2
2024/01/23 00:01:11;;;;;;;21.63;7.47;;;7.90;99.90;;;;;;5113848;28;20275;-62
2024/01/23 00:03:37;;;;;;;15.03;7.43;;;8.00;99.90;;;;;;5114311;28;20192;-62
2024/01/23 00:06:03;;;;;;;21.53;7.87;;;8.00;99.90;;;;;;5113716;28;20172;-63
2024/01/23 00:08:29;;;;;;;18.20;6.07;;;8.00;99.90;;;;;;5113621;28;20573;-61
2024/01/23 00:10:56;;;;;;;17.57;7.33;;;8.00;99.90;;;;;;5113754;28;20251;-62
2024/01/23 00:13:22;;;;;;;23.00;7.97;;;8.00;99.90;;;;;;5113448;28;20172;-62
2024/01/23 00:15:48;;;;;;;22.43;7.60;;;7.90;99.90;;;;;;5113673;28;20286;-63
2024/01/23 00:18:14;;;;;;;29.33;8.53;;;7.80;99.90;;;;;;5113969;28;20245;-63
2024/01/23 00:20:40;;;;;;;17.10;6.90;;;7.60;99.90;;;;;;5113801;28;20251;-62
2024/01/23 00:23:06;;;;;;;31.53;7.70;;;7.50;99.90;;;;;;5113812;28;20329;-62
2024/01/23 00:25:32;;;;;;;23.60;8.53;;;7.40;99.90;;;;;;5113580;28;20649;-62
2024/01/23 00:27:58;;;;;;;21.03;8.33;;;7.20;99.90;;;;;;5113225;28;20192;-63
2024/01/23 00:30:23;;;;;;;18.50;7.07;;;7.10;99.90;;;;;;5113339;28;20184;-62
2024/01/23 00:32:49;;;;;;;22.73;8.30;;;6.90;99.90;;;;;;5113406;28;20191;-62
2024/01/23 00:35:15;;;;;;;26.17;9.10;;;6.80;99.90;;;;;;5112683;28;20180;-61
2024/01/23 00:37:41;;;;;;;20.50;8.67;;;6.70;99.90;;;;;;5113351;28;20695;-62
2024/01/23 00:40:10;;;;;;;20.53;8.00;;;6.60;99.90;;;;;;5114016;28;20179;-62
2024/01/23 00:42:36;;;;;;;26.53;7.83;;;6.50;99.90;;;;;;5113556;28;20168;-62
2024/01/23 00:45:03;;;;;;;18.43;7.97;;;6.40;99.90;;;;;;5115004;28;20572;-62
2024/01/23 00:47:30;;;;;;;30.37;7.67;;;6.40;99.90;;;;;;5117708;28;20187;-62
2024/01/23 00:49:56;;;;;;;18.73;7.23;;;6.40;99.90;;;;;;5117931;28;20173;-63
2024/01/23 00:52:22;;;;;;;25.63;7.80;;;6.40;99.90;;;;;;5117224;28;20231;-62
2024/01/23 00:54:48;;;;;;;17.67;8.10;;;6.30;99.90;;;;;;5117264;28;20208;-62
2024/01/23 00:57:14;;;;;;;22.17;8.60;;;6.30;99.90;;;;;;5117205;28;20287;-60
2024/01/23 00:59:40;;;;;;;17.70;7.87;;;6.30;99.90;;;;;;5117496;28;20187;-62
2024/01/23 01:02:05;;;;;;;28.17;8.70;;;6.30;99.90;;;;;;5117088;28;20716;-62
2024/01/23 01:04:31;;;;;;;28.27;8.40;;;6.40;99.90;;;;;;5117374;27;20200;-63
2024/01/23 01:06:57;;;;;;;19.63;8.07;;;6.30;99.90;;;;;;5116965;27;20193;-62
2024/01/23 01:09:23;;;;;;;24.67;9.33;;;6.30;99.90;;;;;;5116360;28;20176;-62
2024/01/23 01:11:48;;;;;;;30.33;8.40;;;6.30;99.90;;;;;;5116945;28;20202;-62
2024/01/23 01:14:14;;;;;;;28.20;8.67;;;6.20;99.90;;;;;;5116562;28;20183;-62
2024/01/23 01:16:40;;;;;;;26.23;8.20;;;6.20;99.90;;;;;;5116703;28;20177;-62
2024/01/23 01:19:06;;;;;;;22.67;8.57;;;6.20;99.90;;;;;;5116727;28;20187;-62
2024/01/23 01:21:31;;;;;;;34.80;9.37;;;6.30;99.90;;;;;;5116777;28;20225;-62
2024/01/23 01:23:57;;;;;;;28.93;8.27;;;6.30;99.90;;;;;;5117151;28;20200;-62
2024/01/23 01:26:23;;;;;;;27.90;8.23;;;6.30;99.90;;;;;;5117213;28;20241;-61
2024/01/23 01:28:49;;;;;;;20.37;8.13;;;6.20;99.90;;;;;;5116531;28;20218;-63
2024/01/23 01:31:14;;;;;;;20.90;8.27;;;6.20;99.90;;;;;;5115546;28;20188;-61
2024/01/23 01:33:40;;;;;;;15.47;7.97;;;6.30;99.90;;;;;;5115202;28;20656;-61
2024/01/23 01:36:07;;;;;;;25.93;7.80;;;6.40;99.90;;;;;;5116518;28;20263;-61
2024/01/23 01:38:33;;;;;;;24.43;8.10;;;6.40;99.90;;;;;;5116369;28;20193;-61
2024/01/23 01:40:58;;;;;;;18.03;7.67;;;6.50;99.90;;;;;;5116617;28;20301;-62
2024/01/23 01:43:29;;;;;;;23.67;8.30;;;6.60;99.90;;;;;;5116014;28;20253;-62
2024/01/23 01:46:12;;;;;;;27.07;7.87;;;6.60;99.90;;;;;;5115054;28;20172;-62
2024/01/23 01:48:41;;;;;;;18.30;7.60;;;6.60;99.90;;;;;;5116471;28;20226;-62
2024/01/23 01:51:07;;;;;;;17.67;8.13;;;6.60;99.90;;;;;;5116128;28;20196;-62
2024/01/23 01:53:34;;;;;;;15.23;7.63;;;6.60;99.90;;;;;;5116143;28;20184;-62
2024/01/23 01:56:03;;;;;;;19.80;7.43;;;6.70;99.90;;;;;;5115020;28;20295;-62
2024/01/23 01:58:30;;;;;;;17.67;7.20;;;6.70;99.90;;;;;;5115696;28;20269;-62
2024/01/23 02:00:57;;;;;;;22.73;8.43;;;6.80;99.90;;;;;;5116045;28;20192;-63
2024/01/23 02:03:23;;;;;;;19.77;8.07;;;6.80;99.90;;;;;;5116363;28;20618;-62
2024/01/23 02:05:50;;;;;;;11.10;6.40;;;6.90;99.90;;;;;;5116243;28;20176;-62
2024/01/23 02:08:17;;;;;;;13.43;6.93;;;6.70;99.90;;;;;;5116461;28;20192;-62
2024/01/23 02:10:44;;;;;;;16.90;7.03;;;6.20;99.90;;;;;;5116447;28;20637;-63
2024/01/23 02:13:09;;;;;;;14.27;6.60;;;6.10;99.90;;;;;;5116433;28;20214;-63
2024/01/23 02:15:35;;;;;;;20.97;7.20;;;6.00;99.90;;;;;;5114604;28;20176;-62
2024/01/23 02:18:01;;;;;;;13.00;7.00;;;5.90;99.90;;;;;;5116281;28;20715;-62
2024/01/23 02:20:27;;;;;;;20.53;8.30;;;5.90;99.90;;;;;;5116117;28;20176;-62
2024/01/23 02:22:53;;;;;;;21.60;7.97;;;6.00;99.90;;;;;;5116290;28;20260;-63
2024/01/23 02:25:19;;;;;;;27.40;8.03;;;6.10;99.90;;;;;;5115617;28;20184;-63
2024/01/23 02:27:45;;;;;;;23.90;7.67;;;6.10;99.90;;;;;;5114328;28;20197;-62
2024/01/23 02:30:11;;;;;;;19.73;7.47;;;6.30;99.90;;;;;;5115857;28;20263;-62
2024/01/23 02:32:41;;;;;;;23.33;7.10;;;6.40;99.90;;;;;;5115801;28;20529;-62
2024/01/23 02:35:07;;;;;;;15.63;7.00;;;6.50;99.90;;;;;;5115748;28;20165;-62
2024/01/23 02:37:33;;;;;;;12.73;7.37;;;6.60;99.90;;;;;;5115766;28;20207;-62
2024/01/23 02:39:59;;;;;;;16.13;7.30;;;6.60;99.90;;;;;;5115922;28;20329;-62
2024/01/23 02:42:24;;;;;;;20.67;7.67;;;6.60;99.90;;;;;;5115747;28;20180;-61
2024/01/23 02:44:50;;;;;;;25.23;8.10;;;6.70;99.90;;;;;;5114814;28;20228;-62
2024/01/23 02:47:16;;;;;;;15.70;6.93;;;6.70;99.90;;;;;;5115063;28;20781;-61
2024/01/23 02:49:41;;;;;;;15.43;7.10;;;6.70;99.90;;;;;;5115436;28;20607;-61
2024/01/23 02:52:07;;;;;;;27.20;8.03;;;6.70;99.90;;;;;;5114842;28;20632;-61
2024/01/23 02:54:34;;;;;;;11.20;6.67;;;6.80;99.90;;;;;;5115360;28;20221;-61
2024/01/23 02:57:00;;;;;;;19.90;7.20;;;6.80;99.90;;;;;;5115676;28;20208;-61
2024/01/23 02:59:25;;;;;;;13.03;6.80;;;6.60;99.90;;;;;;5115411;28;20169;-61
2024/01/23 03:01:51;;;;;;;21.93;7.33;;;6.40;99.90;;;;;;5115429;28;20180;-61
2024/01/23 03:04:17;;;;;;;23.80;8.17;;;6.30;99.90;;;;;;5115127;28;20204;-61
2024/01/23 03:06:43;;;;;;;14.97;7.43;;;6.20;99.90;;;;;;5114797;28;20165;-61
2024/01/23 03:09:13;;;;;;;14.77;7.23;;;6.10;99.90;;;;;;5113857;28;20168;-61
2024/01/23 03:11:39;;;;;;;16.43;7.27;;;6.00;99.90;;;;;;5115570;28;20534;-62
2024/01/23 03:14:06;;;;;;;19.03;8.17;;;6.00;99.90;;;;;;5115013;28;20172;-61
2024/01/23 03:16:31;;;;;;;14.77;7.27;;;6.10;99.90;;;;;;5115664;28;20629;-62
2024/01/23 03:18:57;;;;;;;17.37;7.03;;;6.00;99.90;;;;;;5115270;28;20172;-61
2024/01/23 03:21:23;;;;;;;22.77;7.33;;;6.00;99.90;;;;;;5115829;28;20164;-62
2024/01/23 03:23:49;;;;;;;23.17;7.13;;;6.10;99.90;;;;;;5115406;28;20200;-61
2024/01/23 03:26:15;;;;;;;16.70;7.60;;;6.10;99.90;;;;;;5115980;28;20168;-61
2024/01/23 03:28:40;;;;;;;13.50;7.27;;;6.10;99.90;;;;;;5114583;28;20192;-61
2024/01/23 03:31:06;;;;;;;17.80;7.13;;;6.20;99.90;;;;;;5113588;28;20185;-61
2024/01/23 03:33:33;;;;;;;21.33;7.77;;;6.20;99.90;;;;;;5115038;28;20614;-62
2024/01/23 03:35:59;;;;;;;19.47;7.90;;;6.30;99.90;;;;;;5114943;28;20176;-61
2024/01/23 03:38:24;;;;;;;21.50;7.37;;;6.30;99.90;;;;;;5114947;28;20196;-61
2024/01/23 03:40:50;;;;;;;26.30;7.60;;;6.30;99.90;;;;;;5115068;28;20177;-61
2024/01/23 03:43:16;;;;;;;15.53;7.80;;;6.30;99.90;;;;;;5114497;28;20188;-61
2024/01/23 03:45:42;;;;;;;15.17;7.20;;;6.40;99.90;;;;;;5114264;28;20173;-62
2024/01/23 03:48:08;;;;;;;18.27;7.10;;;6.40;99.90;;;;;;5114259;28;20196;-61
2024/01/23 03:50:33;;;;;;;19.13;7.77;;;6.50;99.90;;;;;;5114299;28;20235;-61
2024/01/23 03:52:59;;;;;;;15.97;7.30;;;6.50;99.90;;;;;;5114694;28;20644;-62
2024/01/23 03:55:25;;;;;;;16.77;7.47;;;6.50;99.90;;;;;;5114765;28;20175;-61
2024/01/23 03:57:51;;;;;;;20.20;7.23;;;6.60;99.90;;;;;;5112944;28;20203;-60
2024/01/23 04:00:18;;;;;;;15.40;6.40;;;6.60;99.90;;;;;;5114314;28;20181;-62
2024/01/23 04:02:44;;;;;;;26.00;7.40;;;6.60;99.90;;;;;;5114234;28;20236;-61
2024/01/23 04:05:10;;;;;;;24.20;7.77;;;6.60;99.90;;;;;;5114394;28;20202;-61
2024/01/23 04:07:36;;;;;;;16.20;6.40;;;6.70;99.90;;;;;;5114468;28;20255;-61
2024/01/23 04:10:04;;;;;;;20.27;6.93;;;6.70;99.90;;;;;;5114662;28;20172;-61
2024/01/23 04:12:30;;;;;;;16.40;6.77;;;6.70;99.90;;;;;;5113078;28;20180;-62
2024/01/23 04:14:55;;;;;;;22.80;7.20;;;6.70;99.90;;;;;;5114009;28;20177;-62
2024/01/23 04:17:21;;;;;;;18.97;6.80;;;6.70;99.90;;;;;;5112968;28;20626;-62
2024/01/23 04:19:47;;;;;;;17.90;6.80;;;6.70;99.90;;;;;;5114104;28;20179;-62
2024/01/23 04:22:13;;;;;;;23.83;7.60;;;6.70;99.90;;;;;;5114113;28;20180;-62
2024/01/23 04:24:40;;;;;;;26.60;7.50;;;6.70;99.90;;;;;;5113456;28;20208;-61
2024/01/23 04:27:07;;;;;;;17.07;6.90;;;6.80;99.90;;;;;;5113677;28;20272;-61
2024/01/23 04:29:33;;;;;;;18.60;7.23;;;6.80;99.90;;;;;;5113662;28;20653;-61
2024/01/23 04:31:59;;;;;;;15.00;6.60;;;6.80;99.90;;;;;;5113666;28;20245;-61
2024/01/23 04:34:25;;;;;;;17.77;7.40;;;6.80;99.90;;;;;;5114253;28;20176;-61
2024/01/23 04:36:50;;;;;;;16.10;7.17;;;6.80;99.90;;;;;;5113986;28;20197;-61
2024/01/23 04:39:17;;;;;;;17.43;6.57;;;6.80;99.90;;;;;;5114305;28;20200;-61
2024/01/23 04:41:43;;;;;;;16.90;6.83;;;6.80;99.90;;;;;;5114236;28;20176;-61
2024/01/23 04:44:09;;;;;;;15.33;7.37;;;6.80;99.90;;;;;;5113568;28;20582;-61
2024/01/23 04:46:35;;;;;;;26.17;8.10;;;6.80;99.90;;;;;;5113870;28;20513;-60
2024/01/23 04:49:00;;;;;;;20.50;7.77;;;6.90;99.90;;;;;;5113739;28;20233;-61
2024/01/23 04:51:27;;;;;;;17.03;6.97;;;6.90;99.90;;;;;;5113808;28;20248;-61
2024/01/23 04:53:53;;;;;;;13.27;6.77;;;6.90;99.90;;;;;;5112510;28;20188;-61
2024/01/23 04:56:19;;;;;;;23.10;7.97;;;6.80;99.90;;;;;;5113705;28;20169;-61
2024/01/23 04:58:45;;;;;;;16.80;7.30;;;6.80;99.90;;;;;;5113135;28;20196;-61
2024/01/23 05:01:11;;;;;;;16.57;7.43;;;6.80;99.90;;;;;;5113324;28;20724;-61
2024/01/23 05:03:37;;;;;;;18.80;7.03;;;6.80;99.90;;;;;;5113091;28;20207;-61
2024/01/23 05:06:04;;;;;;;17.37;7.60;;;6.80;99.90;;;;;;5113163;28;20173;-61
2024/01/23 05:08:30;;;;;;;20.67;8.23;;;6.70;99.90;;;;;;5113099;28;20185;-61
2024/01/23 05:10:56;;;;;;;13.93;7.00;;;6.70;99.90;;;;;;5113151;28;20176;-61
2024/01/23 05:13:22;;;;;;;19.90;7.50;;;6.70;99.90;;;;;;5113064;28;20469;-61
2024/01/23 05:15:48;;;;;;;21.27;7.27;;;6.70;99.90;;;;;;5113938;28;20655;-61
2024/01/23 05:18:14;;;;;;;22.67;7.63;;;6.60;99.90;;;;;;5113644;28;20722;-62
2024/01/23 05:20:40;;;;;;;24.33;7.63;;;6.60;99.90;;;;;;5113031;28;20630;-61
2024/01/23 05:23:06;;;;;;;16.63;7.90;;;6.50;99.90;;;;;;5113062;28;20184;-62
2024/01/23 05:25:32;;;;;;;21.80;8.40;;;6.50;99.90;;;;;;5113028;28;20176;-60
2024/01/23 05:27:58;;;;;;;24.87;10.23;;;6.50;99.90;;;;;;5113173;28;20270;-61
2024/01/23 05:30:24;;;;;;;17.57;9.00;;;6.40;99.90;;;;;;5112858;28;20659;-61
2024/01/23 05:32:51;;;;;;;17.50;8.93;;;6.40;99.90;;;;;;5115662;28;20169;-61
2024/01/23 05:35:17;;;;;;;24.27;9.00;;;6.40;99.90;;;;;;5116461;28;20263;-61
2024/01/23 05:37:43;;;;;;;20.13;8.10;;;6.40;99.90;;;;;;5115213;28;20239;-61
2024/01/23 05:40:12;;;;;;;20.07;8.10;;;6.40;99.90;;;;;;5116443;28;20176;-60
2024/01/23 05:42:38;;;;;;;21.33;7.77;;;6.40;99.90;;;;;;5116507;28;20176;-61
2024/01/23 05:45:05;;;;;;;23.07;8.10;;;6.40;99.90;;;;;;5115920;28;20291;-61
2024/01/23 05:47:31;;;;;;;17.27;7.40;;;6.40;99.90;;;;;;5116732;27;20228;-61
2024/01/23 05:49:56;;;;;;;20.03;8.10;;;6.40;99.90;;;;;;5116500;28;20224;-61
2024/01/23 05:52:22;;;;;;;26.13;7.90;;;6.40;99.90;;;;;;5116112;28;20267;-61
2024/01/23 05:54:49;;;;;;;23.90;8.10;;;6.40;99.90;;;;;;5116758;28;20184;-62
2024/01/23 05:57:16;;;;;;;21.77;8.90;;;6.40;99.90;;;;;;5116284;28;20278;-61
2024/01/23 05:59:42;;;;;;;20.30;7.87;;;6.40;99.90;;;;;;5115743;28;20177;-62
2024/01/23 06:02:08;;;;;;;21.50;7.97;;;6.40;99.90;;;;;;5115927;28;20656;-63
2024/01/23 06:04:33;;;;;;;24.80;7.83;;;6.40;99.90;;;;;;5114571;28;20211;-61
2024/01/23 06:06:59;;;;;;;23.80;8.57;;;6.40;99.90;;;;;;5115973;28;20687;-61
2024/01/23 06:09:25;;;;;;;22.53;8.90;;;6.40;99.90;;;;;;5116099;28;20176;-61
2024/01/23 06:11:54;;;;;;;21.97;8.40;;;6.40;99.90;;;;;;5116093;28;20192;-61
2024/01/23 06:14:19;;;;;;;25.70;7.97;;;6.50;99.90;;;;;;5115359;28;20690;-61
2024/01/23 06:16:45;;;;;;;19.37;7.73;;;6.50;99.90;;;;;;5115724;28;20176;-61
2024/01/23 06:19:11;;;;;;;16.97;8.07;;;6.50;99.90;;;;;;5115906;28;20188;-61
2024/01/23 06:21:38;;;;;;;21.23;7.83;;;6.40;99.90;;;;;;5115636;28;20594;-61
2024/01/23 06:24:05;;;;;;;23.53;8.10;;;6.40;99.90;;;;;;5115736;28;20204;-61
2024/01/23 06:26:32;;;;;;;20.90;8.03;;;6.40;99.90;;;;;;5115425;28;20226;-61
2024/01/23 06:28:58;;;;;;;17.17;7.73;;;6.40;99.90;;;;;;5115490;27;20221;-61
2024/01/23 06:31:27;;;;;;;21.50;7.97;;;6.40;99.90;;;;;;5114397;28;20586;-61
2024/01/23 06:33:53;;;;;;;22.33;7.77;;;6.30;99.90;;;;;;5115399;28;20180;-62
2024/01/23 06:36:19;;;;;;;15.10;7.60;;;6.30;99.90;;;;;;5115273;28;20173;-62
2024/01/23 06:38:45;;;;;;;24.90;8.50;;;6.30;99.90;;;;;;5115231;28;20232;-61
2024/01/23 06:41:11;;;;;;;23.20;8.73;;;6.30;99.90;;;;;;5115201;28;20208;-62
2024/01/23 06:43:37;;;;;;;22.93;9.37;;;6.30;99.90;;;;;;5114250;28;20200;-61
2024/01/23 06:46:03;;;;;;;23.47;7.70;;;6.30;99.90;;;;;;5115321;28;20229;-62
2024/01/23 06:48:30;;;;;;;22.63;8.30;;;6.30;99.90;;;;;;5115313;28;20192;-62
2024/01/23 06:50:56;;;;;;;16.60;7.30;;;6.30;99.90;;;;;;5115333;28;20672;-62
2024/01/23 06:53:22;;;;;;;24.53;8.13;;;6.20;99.90;;;;;;5114982;28;20180;-62
2024/01/23 06:55:48;;;;;;;24.00;8.27;;;6.20;99.90;;;;;;5115434;28;20176;-62
2024/01/23 06:58:14;;;;;;;20.53;8.67;;;6.20;99.90;;;;;;5114827;28;20207;-62
2024/01/23 07:00:40;;;;;;;23.73;8.00;;;6.10;99.90;;;;;;5114534;28;20187;-62
2024/01/23 07:03:09;;;;;;;19.90;7.50;;;6.10;99.90;;;;;;5115300;28;20507;-62
2024/01/23 07:05:35;;;;;;;14.70;8.17;;;6.10;99.90;;;;;;5114772;28;20179;-61
2024/01/23 07:08:05;;;;;;;27.03;8.50;;;6.20;99.90;;;;;;5114900;27;20212;-62
2024/01/23 07:10:31;;;;;;;20.63;7.80;;;6.20;99.90;;;;;;5115027;28;20182;-62
2024/01/23 07:12:57;;;;;;;19.87;8.00;;;6.20;99.90;;;;;;5114835;28;20177;-62
2024/01/23 07:15:23;;;;;;;21.27;7.20;;;6.10;99.90;;;;;;5114255;28;20183;-62
2024/01/23 07:17:48;;;;;;;23.87;9.20;;;6.10;99.90;;;;;;5114669;28;20196;-62
2024/01/23 07:20:14;;;;;;;19.93;8.30;;;6.10;99.90;;;;;;5114417;28;20626;-62
2024/01/23 07:22:40;;;;;;;20.50;8.70;;;6.10;99.90;;;;;;5114706;28;20183;-62
2024/01/23 07:25:06;;;;;;;19.27;8.77;;;6.10;99.90;;;;;;5114477;28;20208;-63
2024/01/23 07:27:32;;;;;;;20.00;7.93;;;6.10;99.90;;;;;;5114573;27;20196;-63
2024/01/23 07:29:58;;;;;;;16.60;8.00;;;6.10;99.90;;;;;;5114144;28;20321;-62
2024/01/23 07:32:24;;;;;;;20.80;7.87;;;6.10;99.90;;;;;;5112961;28;20203;-62
2024/01/23 07:34:49;;;;;;;25.37;8.27;;;6.10;99.90;;;;;;5114278;28;20189;-62
2024/01/23 07:37:15;;;;;;;19.77;8.63;;;6.20;99.90;;;;;;5114309;28;20195;-62
2024/01/23 07:39:41;;;;;;;23.77;10.00;;;6.20;99.90;;;;;;5114151;28;20204;-62
2024/01/23 07:42:07;;;;;;;25.10;8.63;;;6.20;99.90;;;;;;5114072;28;20184;-62
2024/01/23 07:44:37;;;;;;;16.93;7.87;;;6.20;99.90;;;;;;5113721;28;20211;-62
2024/01/23 07:47:03;;;;;;;18.53;9.07;;;6.20;99.90;;;;;;5113950;28;20275;-62
2024/01/23 07:49:29;;;;;;;30.53;8.97;;;6.20;99.90;;;;;;5114003;28;20176;-62
2024/01/23 07:51:55;;;;;;;22.10;8.23;;;6.20;99.90;;;;;;5112589;28;20196;-62
2024/01/23 07:54:21;;;;;;;23.63;8.10;;;6.20;99.90;;;;;;5113439;28;20184;-63
2024/01/23 07:56:47;;;;;;;21.93;8.33;;;6.20;99.90;;;;;;5113813;28;20204;-62
2024/01/23 07:59:13;;;;;;;25.20;8.80;;;6.10;99.90;;;;;;5114059;28;20624;-62
2024/01/23 08:01:39;;;;;;;22.73;8.13;;;6.20;99.90;;;;;;5113719;28;20204;-62
2024/01/23 08:04:05;;;;;;;22.73;8.20;;;6.20;99.90;;;;;;5113958;28;20204;-62
2024/01/23 08:06:30;;;;;;;27.33;7.83;;;6.20;99.90;;;;;;5113545;28;20283;-62
2024/01/23 08:08:56;;;;;;;25.50;9.33;;;6.20;99.90;;;;;;5113721;28;20179;-62
2024/01/23 08:11:22;;;;;;;20.93;9.63;;;6.20;99.90;;;;;;5114498;28;20176;-62
2024/01/23 08:13:48;;;;;;;20.73;8.10;;;6.30;99.90;;;;;;5113426;28;20645;-62
2024/01/23 08:16:14;;;;;;;21.60;8.17;;;6.30;99.90;;;;;;5113896;28;20662;-62
2024/01/23 08:18:40;;;;;;;22.60;8.37;;;6.30;99.90;;;;;;5113474;28;20260;-62
2024/01/23 08:21:07;;;;;;;24.83;8.73;;;6.20;99.90;;;;;;5113583;28;20645;-62
2024/01/23 08:23:33;;;;;;;25.33;8.20;;;6.20;99.90;;;;;;5113679;28;20624;-62
2024/01/23 08:25:59;;;;;;;28.27;8.97;;;6.20;99.90;;;;;;5113530;28;20192;-62
2024/01/23 08:28:25;;;;;;;22.23;8.50;;;6.30;99.90;;;;;;5113409;28;20723;-62
2024/01/23 08:30:50;;;;;;;25.07;9.10;;;6.20;99.90;;;;;;5113363;28;20176;-62
2024/01/23 08:33:20;;;;;;;28.93;8.53;;;6.20;99.90;;;;;;5113403;28;20542;-62
2024/01/23 08:35:46;;;;;;;20.57;8.60;;;6.20;99.90;;;;;;5113401;28;20169;-62
2024/01/23 08:38:13;;;;;;;17.33;8.63;;;6.30;99.90;;;;;;5113355;28;20193;-62
2024/01/23 08:40:39;;;;;;;30.20;10.60;;;6.30;99.90;;;;;;5113697;28;20168;-62
2024/01/23 08:43:05;;;;;;;20.33;8.43;;;6.30;99.90;;;;;;5112184;28;20169;-62
2024/01/23 08:45:31;;;;;;;15.97;7.50;;;6.30;99.90;;;;;;5113134;28;20229;-62
2024/01/23 08:47:58;;;;;;;19.93;9.30;;;6.20;99.90;;;;;;5113550;28;20652;-62
2024/01/23 08:50:24;;;;;;;23.00;8.80;;;6.20;99.90;;;;;;5113406;28;20165;-63
2024/01/23 08:52:49;;;;;;;22.10;8.50;;;6.20;99.90;;;;;;5113655;28;20168;-62
2024/01/23 08:55:15;;;;;;;25.93;9.10;;;6.10;99.90;;;;;;5113635;28;20148;-62
2024/01/23 08:57:43;;;;;;;22.77;8.27;;;6.10;99.90;;;;;;5113280;28;20218;-62
2024/01/23 09:00:11;;;;;;;22.60;9.03;;;6.20;99.90;;;;;;5112967;28;20265;-62
2024/01/23 09:02:38;;;;;;;20.27;8.07;;;6.20;99.90;;;;;;5113192;28;20180;-62
2024/01/23 09:05:04;;;;;;;18.63;8.63;;;6.10;99.90;;;;;;5113231;28;20283;-62
2024/01/23 09:07:30;;;;;;;21.87;8.23;;;6.20;99.90;;;;;;5117577;28;20188;-62
2024/01/23 09:09:56;;;;;;;16.97;7.83;;;6.10;99.90;;;;;;5117289;28;20510;-62
2024/01/23 09:12:22;;;;;;;21.50;8.50;;;6.20;99.90;;;;;;5117071;28;20249;-62
2024/01/23 09:14:48;;;;;;;24.07;8.80;;;6.10;99.90;;;;;;5116840;28;20172;-61
2024/01/23 09:17:14;;;;;;;18.17;8.57;;;6.20;99.90;;;;;;5117132;28;20725;-62
2024/01/23 09:19:40;;;;;;;25.23;9.13;;;6.20;99.90;;;;;;5117123;28;20208;-62
2024/01/23 09:22:06;;;;;;;21.33;9.63;;;6.20;99.90;;;;;;5117135;28;20157;-63
2024/01/23 09:24:32;;;;;;;22.07;8.23;;;6.20;99.90;;;;;;5115435;28;20200;-62
2024/01/23 09:27:01;;;;;;;23.80;8.30;;;6.20;99.90;;;;;;5116955;28;20196;-62
2024/01/23 09:29:33;;;;;;;23.63;8.13;;;6.20;99.90;;;;;;5116492;28;20223;-62
2024/01/23 09:31:59;;;;;;;21.53;8.00;;;6.30;99.90;;;;;;5116444;28;20184;-63
2024/01/23 09:34:25;;;;;;;22.43;8.03;;;6.30;99.90;;;;;;5116837;28;20180;-62
2024/01/23 09:36:51;;;;;;;23.00;8.00;;;6.40;99.90;;;;;;5116444;28;20188;-62
2024/01/23 09:39:17;;;;;;;25.07;8.33;;;6.50;99.90;;;;;;5116515;28;20236;-62
2024/01/23 09:41:46;;;;;;;24.47;8.37;;;6.50;99.90;;;;;;5116420;28;20177;-62
2024/01/23 09:44:13;;;;;;;16.83;8.37;;;6.50;99.90;;;;;;5114877;28;20990;-62
2024/01/23 09:46:39;;;;;;;17.13;7.73;;;6.50;99.90;;;;;;5116286;28;20244;-62
2024/01/23 09:49:06;;;;;;;22.63;8.23;;;6.60;99.90;;;;;;5116356;28;20539;-62
2024/01/23 09:51:34;;;;;;;21.20;7.80;;;6.60;96.70;;;;;;5116036;28;20212;-62
2024/01/23 09:54:00;;;;;;;22.37;8.00;;;6.70;99.90;;;;;;5116125;28;20699;-62
2024/01/23 09:56:27;;;;;;;28.27;8.20;;;6.70;97.20;;;;;;5116181;28;20233;-62
2024/01/23 09:58:54;;;;;;;24.07;8.63;;;6.80;96.80;;;;;;5117145;28;20491;-62
2024/01/23 10:01:20;;;;;;;23.67;8.47;;;6.80;62.80;;;;;;5114460;28;20192;-62
2024/01/23 10:03:49;;;;;;;21.73;8.47;;;6.80;65.60;;;;;;5116228;28;20568;-62
2024/01/23 10:06:15;;;;;;;19.20;7.20;;;6.90;26.50;;;;;;5115944;28;20221;-62
2024/01/23 10:08:41;;;;;;;24.83;8.63;;;6.90;74.10;;;;;;5115835;28;20185;-62
2024/01/23 10:11:10;;;;;;;14.80;7.70;;;7.00;41.30;;;;;;5115902;28;20176;-62
2024/01/23 10:13:39;;;;;;;20.33;7.73;;;7.10;31.80;;;;;;5116113;28;20168;-62
2024/01/23 10:16:06;;;;;;;18.73;7.60;;;7.20;36.20;;;;;;5115578;27;20184;-62
2024/01/23 10:18:32;;;;;;;20.77;7.93;;;7.20;1.00;;;;;;5114885;28;20195;-62
2024/01/23 10:20:58;;;;;;;24.67;8.23;;;7.20;1.00;;;;;;5115709;28;20174;-62
2024/01/23 10:23:25;;;;;;;24.33;8.60;;;7.30;1.00;;;;;;5115826;28;20176;-62
2024/01/23 10:25:50;;;;;;;19.13;8.23;;;7.30;1.00;;;;;;5115897;28;20526;-62
2024/01/23 10:28:17;;;;;;;15.13;7.77;;;7.40;1.00;;;;;;5115423;28;20188;-62
2024/01/23 10:30:43;;;;;;;17.93;7.60;;;7.40;1.00;;;;;;5115205;28;20177;-62
2024/01/23 10:33:10;;;;;;;21.63;7.50;;;7.40;1.00;;;;;;5114242;28;20185;-62
2024/01/23 10:35:36;;;;;;;26.63;8.10;;;7.30;1.00;;;;;;5115514;28;20173;-62
2024/01/23 10:38:03;;;;;;;25.70;7.63;;;7.40;1.00;;;;;;5115252;28;20665;-62
2024/01/23 10:40:29;;;;;;;30.03;8.60;;;7.40;1.00;;;;;;5115320;28;20163;-62
2024/01/23 10:42:59;;;;;;;25.20;7.30;;;7.40;1.00;;;;;;5115466;28;20630;-62
2024/01/23 10:45:25;;;;;;;27.57;8.00;;;7.40;1.00;;;;;;5114865;28;20202;-61
2024/01/23 10:47:57;;;;;;;23.20;8.90;;;7.50;1.00;;;;;;5115060;28;20189;-62
2024/01/23 10:50:22;;;;;;;29.20;8.00;;;7.50;1.00;;;;;;5114942;28;20149;-62
2024/01/23 10:52:49;;;;;;;22.00;8.60;;;7.60;1.00;;;;;;5115630;28;20202;-62
2024/01/23 10:55:19;;;;;;;20.67;7.73;;;7.60;1.00;;;;;;5114986;28;20176;-62
2024/01/23 10:57:47;;;;;;;18.90;8.20;;;7.70;1.00;;;;;;5114982;28;20185;-62
2024/01/23 11:00:18;;;;;;;17.90;8.23;;;7.70;1.00;;;;;;5114882;28;20184;-62
2024/01/23 11:02:58;;;;;;;28.97;7.97;;;7.70;1.00;;;;;;5115555;28;20157;-63
2024/01/23 11:05:39;;;;;;;25.07;8.53;;;7.60;1.00;;;;;;5114782;28;20216;-62
2024/01/23 11:08:14;;;;;;;23.30;8.17;;;7.60;1.00;;;;;;5114746;28;20195;-61
2024/01/23 11:10:48;;;;;;;21.97;8.00;;;7.60;1.00;;;;;;5114706;28;20250;-62
2024/01/23 11:13:38;;;;;;;21.87;7.80;;;7.60;1.00;;;;;;5115110;28;20493;-62
2024/01/23 11:16:04;;;;;;;17.73;7.37;;;7.70;1.00;;;;;;5114439;28;20156;-62
2024/01/23 11:18:32;;;;;;;17.53;8.23;;;7.60;1.00;;;;;;5114510;28;20181;-61
2024/01/23 11:21:22;;;;;;;23.47;8.40;;;7.50;1.00;;;;;;5114979;28;20192;-62
2024/01/23 11:24:03;;;;;;;27.43;8.33;;;7.70;1.00;;;;;;5114961;27;20188;-61
2024/01/23 11:26:31;;;;;;;29.33;8.00;;;7.70;1.00;;;;;;5114724;28;20160;-62
2024/01/23 11:29:04;;;;;;;21.27;7.73;;;7.70;1.00;;;;;;5114280;28;20259;-62
2024/01/23 11:31:39;;;;;;;26.43;8.37;;;7.80;1.00;;;;;;5112676;28;20185;-62
2024/01/23 11:34:23;;;;;;;20.37;8.07;;;7.90;1.00;;;;;;5114526;28;20156;-62
2024/01/23 11:36:49;;;;;;;23.40;8.20;;;7.90;1.00;;;;;;5114154;27;20645;-62
2024/01/23 11:39:15;;;;;;;23.10;7.53;;;7.90;1.00;;;;;;5114411;28;20544;-62
2024/01/23 11:41:50;;;;;;;19.97;7.97;;;7.90;1.00;;;;;;5114407;28;20197;-61
2024/01/23 11:44:17;;;;;;;30.77;8.87;;;7.80;1.00;;;;;;5113810;28;20194;-63
2024/01/23 11:46:47;;;;;;;22.53;7.70;;;7.80;1.00;;;;;;5113995;28;20176;-62
2024/01/23 11:49:13;;;;;;;25.57;8.20;;;7.80;1.00;;;;;;5114303;28;20575;-62
2024/01/23 11:51:39;;;;;;;27.83;8.27;;;7.70;1.00;;;;;;5113908;28;20581;-62
2024/01/23 11:54:11;;;;;;;21.97;7.50;;;7.70;1.00;;;;;;5114129;28;20179;-62
2024/01/23 11:56:37;;;;;;;23.23;8.20;;;7.70;1.00;;;;;;5113892;28;20156;-62
2024/01/23 11:59:03;;;;;;;31.93;8.53;;;7.60;1.00;;;;;;5113921;28;20169;-61
2024/01/23 12:01:35;;;;;;;21.27;7.90;;;7.70;1.00;;;;;;5112343;28;20184;-61
2024/01/23 12:04:01;;;;;;;24.97;8.03;;;7.80;1.00;;;;;;5114225;28;20219;-62
2024/01/23 12:06:28;;;;;;;20.53;8.10;;;8.00;1.00;;;;;;5114021;28;20195;-61
2024/01/23 12:08:54;;;;;;;24.60;8.40;;;8.00;1.00;;;;;;5113840;28;20188;-61
2024/01/23 12:11:21;;;;;;;29.63;8.23;;;8.10;1.00;;;;;;5113627;28;20161;-62
2024/01/23 12:13:50;;;;;;;19.53;7.30;;;8.20;1.00;;;;;;5113647;28;20681;-62
2024/01/23 12:16:18;;;;;;;30.27;8.67;;;8.20;1.00;;;;;;5113319;28;20182;-61
2024/01/23 12:18:53;;;;;;;26.50;7.83;;;8.10;1.00;;;;;;5113542;28;20192;-62
2024/01/23 12:21:19;;;;;;;22.83;7.90;;;8.20;1.00;;;;;;5113754;28;20616;-62
2024/01/23 12:23:45;;;;;;;27.03;8.63;;;8.30;1.00;;;;;;5113445;28;20207;-62
2024/01/23 12:26:11;;;;;;;21.37;7.77;;;8.20;1.00;;;;;;5112253;28;20177;-63
2024/01/23 12:28:37;;;;;;;21.77;7.27;;;8.20;1.00;;;;;;5113690;28;20199;-62
2024/01/23 12:31:11;;;;;;;18.93;7.27;;;8.30;1.00;;;;;;5113121;28;20211;-62
2024/01/23 12:33:41;;;;;;;23.93;7.63;;;8.40;1.00;;;;;;5113925;28;20159;-62
2024/01/23 12:36:07;;;;;;;17.50;8.00;;;8.50;1.00;;;;;;5114140;28;20161;-63
2024/01/23 12:38:35;;;;;;;20.83;6.83;;;8.70;1.00;;;;;;5113666;28;20203;-62
2024/01/23 12:41:01;;;;;;;20.23;7.60;;;8.80;1.00;;;;;;5115525;28;20549;-63
2024/01/23 12:43:27;;;;;;;19.60;7.20;;;8.90;99.90;;;;;;5117578;28;20157;-62
2024/01/23 12:45:55;;;;;;;25.00;7.23;;;9.00;99.90;;;;;;5117544;28;20591;-62